DLH4AN EDDM-EDDW
Flight info
| Callsign | DLH4AN |
|---|---|
| Flight time | 0h 53m |
| Altitude | 32000 |
| Route | GIVM1N GIVMI Y101 IBAGA L610 BIBEG L604 OBISI P605 SAS Z88 VERED VE09B |
| Aircraft | A320/M-SDE3FGHIRWY/LB1 |
Departure
| Time | 2026-05-07 06:21 |
|---|---|
| Airport | Munich Airport (EDDM) |
Arrival
| Time | 2026-05-07 07:14 |
|---|---|
| Airport | Bremen Airport (EDDW) |
| Time | Latitude | Longitude | Altitude | Speed | Heading |
|---|---|---|---|---|---|
| 2026-05-07 05:46 | 48.35643 | 11.79273 | 1486 ft | 0 kts | 263° |
| 2026-05-07 06:11 | 48.35645 | 11.79293 | 1471 ft | 4 kts | 263° |
| 2026-05-07 06:11 | 48.35648 | 11.79334 | 1473 ft | 4 kts | 263° |
| 2026-05-07 06:11 | 48.35650 | 11.79366 | 1477 ft | 4 kts | 269° |
| 2026-05-07 06:12 | 48.35645 | 11.79404 | 1471 ft | 4 kts | 309° |
| 2026-05-07 06:12 | 48.35625 | 11.79424 | 1478 ft | 3 kts | 353° |
| 2026-05-07 06:12 | 48.35606 | 11.79428 | 1474 ft | 0 kts | 353° |
| 2026-05-07 06:14 | 48.35635 | 11.79423 | 1474 ft | 9 kts | 353° |
| 2026-05-07 06:14 | 48.35699 | 11.79411 | 1479 ft | 8 kts | 353° |
| 2026-05-07 06:15 | 48.35782 | 11.79397 | 1478 ft | 14 kts | 353° |
| 2026-05-07 06:15 | 48.35875 | 11.79379 | 1485 ft | 14 kts | 348° |
| 2026-05-07 06:15 | 48.35968 | 11.79335 | 1485 ft | 15 kts | 353° |
| 2026-05-07 06:15 | 48.36062 | 11.79322 | 1479 ft | 11 kts | 4° |
| 2026-05-07 06:16 | 48.36100 | 11.79403 | 1478 ft | 11 kts | 82° |
| 2026-05-07 06:16 | 48.36107 | 11.79491 | 1475 ft | 16 kts | 83° |
| 2026-05-07 06:16 | 48.36120 | 11.79665 | 1485 ft | 16 kts | 83° |
| 2026-05-07 06:16 | 48.36136 | 11.79874 | 1472 ft | 14 kts | 83° |
| 2026-05-07 06:17 | 48.36143 | 11.79972 | 1485 ft | 15 kts | 83° |
| 2026-05-07 06:17 | 48.36158 | 11.80161 | 1483 ft | 20 kts | 83° |
| 2026-05-07 06:17 | 48.36174 | 11.80365 | 1485 ft | 19 kts | 83° |
| 2026-05-07 06:17 | 48.36188 | 11.80551 | 1485 ft | 18 kts | 83° |
| 2026-05-07 06:18 | 48.36205 | 11.80770 | 1485 ft | 23 kts | 82° |
| 2026-05-07 06:18 | 48.36223 | 11.80991 | 1471 ft | 21 kts | 83° |
| 2026-05-07 06:18 | 48.36239 | 11.81195 | 1472 ft | 15 kts | 83° |
| 2026-05-07 06:18 | 48.36279 | 11.81285 | 1476 ft | 10 kts | 0° |
| 2026-05-07 06:19 | 48.36345 | 11.81265 | 1485 ft | 9 kts | 348° |
| 2026-05-07 06:19 | 48.36399 | 11.81234 | 1477 ft | 9 kts | 315° |
| 2026-05-07 06:19 | 48.36435 | 11.81122 | 1478 ft | 15 kts | 293° |
| 2026-05-07 06:19 | 48.36481 | 11.80961 | 1475 ft | 18 kts | 293° |
| 2026-05-07 06:20 | 48.36534 | 11.80782 | 1481 ft | 19 kts | 294° |
| 2026-05-07 06:20 | 48.36570 | 11.80588 | 1485 ft | 20 kts | 270° |
| 2026-05-07 06:20 | 48.36549 | 11.80278 | 1485 ft | 56 kts | 263° |
| 2026-05-07 06:20 | 48.36475 | 11.79335 | 1486 ft | 121 kts | 263° |
| 2026-05-07 06:21 | 48.36362 | 11.77849 | 1710 ft | 152 kts | 263° |
| 2026-05-07 06:21 | 48.36241 | 11.76250 | 2423 ft | 155 kts | 263° |
| 2026-05-07 06:21 | 48.36116 | 11.74629 | 3177 ft | 156 kts | 263° |
| 2026-05-07 06:21 | 48.35990 | 11.72998 | 3738 ft | 163 kts | 263° |
| 2026-05-07 06:22 | 48.35853 | 11.71214 | 4113 ft | 183 kts | 263° |
| 2026-05-07 06:22 | 48.36042 | 11.67021 | 5126 ft | 225 kts | 295° |
| 2026-05-07 06:22 | 48.36915 | 11.64903 | 5660 ft | 249 kts | 302° |
| 2026-05-07 06:23 | 48.38227 | 11.63114 | 6507 ft | 263 kts | 324° |
| 2026-05-07 06:23 | 48.39813 | 11.61699 | 7430 ft | 267 kts | 325° |
| 2026-05-07 06:23 | 48.41439 | 11.60266 | 8310 ft | 272 kts | 325° |
| 2026-05-07 06:23 | 48.43077 | 11.58824 | 9166 ft | 278 kts | 325° |
| 2026-05-07 06:24 | 48.44765 | 11.57339 | 10013 ft | 284 kts | 325° |
| 2026-05-07 06:24 | 48.46526 | 11.55780 | 10451 ft | 304 kts | 325° |
| 2026-05-07 06:24 | 48.48420 | 11.54096 | 10741 ft | 328 kts | 326° |
| 2026-05-07 06:24 | 48.50434 | 11.52307 | 11226 ft | 341 kts | 326° |
| 2026-05-07 06:25 | 48.52512 | 11.50469 | 11949 ft | 347 kts | 326° |
| 2026-05-07 06:25 | 48.54589 | 11.48635 | 12695 ft | 353 kts | 326° |
| 2026-05-07 06:25 | 48.56718 | 11.46747 | 13463 ft | 357 kts | 326° |
| 2026-05-07 06:25 | 48.58873 | 11.44834 | 14149 ft | 361 kts | 327° |
| 2026-05-07 06:26 | 48.61060 | 11.42894 | 14795 ft | 366 kts | 326° |
| 2026-05-07 06:26 | 48.63271 | 11.40926 | 15447 ft | 371 kts | 326° |
| 2026-05-07 06:26 | 48.65513 | 11.38925 | 16102 ft | 375 kts | 326° |
| 2026-05-07 06:26 | 48.67782 | 11.36896 | 16745 ft | 380 kts | 326° |
| 2026-05-07 06:27 | 48.70072 | 11.34850 | 17386 ft | 384 kts | 326° |
| 2026-05-07 06:27 | 48.72365 | 11.32802 | 18010 ft | 389 kts | 326° |
| 2026-05-07 06:27 | 48.74715 | 11.30701 | 18585 ft | 393 kts | 326° |
| 2026-05-07 06:27 | 48.77085 | 11.28578 | 19120 ft | 397 kts | 326° |
| 2026-05-07 06:28 | 48.79479 | 11.26428 | 19643 ft | 402 kts | 326° |
| 2026-05-07 06:28 | 48.81904 | 11.24247 | 20167 ft | 406 kts | 326° |
| 2026-05-07 06:28 | 48.84389 | 11.22148 | 20694 ft | 412 kts | 332° |
| 2026-05-07 06:28 | 48.87093 | 11.20599 | 21192 ft | 418 kts | 339° |
| 2026-05-07 06:29 | 48.89866 | 11.19209 | 21725 ft | 420 kts | 339° |
| 2026-05-07 06:29 | 48.92663 | 11.17802 | 22223 ft | 424 kts | 339° |
| 2026-05-07 06:29 | 48.95448 | 11.16387 | 22723 ft | 427 kts | 339° |
| 2026-05-07 06:29 | 48.98280 | 11.14944 | 23220 ft | 430 kts | 339° |
| 2026-05-07 06:30 | 49.01137 | 11.13483 | 23676 ft | 433 kts | 339° |
| 2026-05-07 06:30 | 49.04007 | 11.12017 | 24088 ft | 436 kts | 339° |
| 2026-05-07 06:30 | 49.06894 | 11.10541 | 24507 ft | 438 kts | 339° |
| 2026-05-07 06:30 | 49.09803 | 11.09056 | 24946 ft | 441 kts | 339° |
| 2026-05-07 06:31 | 49.12720 | 11.07570 | 25374 ft | 443 kts | 339° |
| 2026-05-07 06:31 | 49.15619 | 11.06094 | 25784 ft | 445 kts | 340° |
| 2026-05-07 06:31 | 49.18577 | 11.04585 | 26194 ft | 447 kts | 340° |
| 2026-05-07 06:31 | 49.21535 | 11.03072 | 26586 ft | 449 kts | 340° |
| 2026-05-07 06:32 | 49.24519 | 11.01540 | 26979 ft | 451 kts | 340° |
| 2026-05-07 06:32 | 49.27474 | 11.00021 | 27369 ft | 454 kts | 340° |
| 2026-05-07 06:32 | 49.30487 | 10.98469 | 27758 ft | 456 kts | 340° |
| 2026-05-07 06:32 | 49.33505 | 10.96910 | 28133 ft | 459 kts | 340° |
| 2026-05-07 06:33 | 49.36534 | 10.95316 | 28493 ft | 460 kts | 338° |
| 2026-05-07 06:33 | 49.39442 | 10.93252 | 28852 ft | 460 kts | 329° |
| 2026-05-07 06:33 | 49.42140 | 10.90596 | 29200 ft | 460 kts | 323° |
| 2026-05-07 06:33 | 49.44787 | 10.87762 | 29555 ft | 463 kts | 323° |
| 2026-05-07 06:34 | 49.47436 | 10.84925 | 29910 ft | 465 kts | 324° |
| 2026-05-07 06:34 | 49.50057 | 10.82115 | 30192 ft | 466 kts | 324° |
| 2026-05-07 06:34 | 49.52721 | 10.79254 | 30489 ft | 467 kts | 324° |
| 2026-05-07 06:34 | 49.55385 | 10.76397 | 30858 ft | 466 kts | 324° |
| 2026-05-07 06:35 | 49.58055 | 10.73538 | 31211 ft | 466 kts | 324° |
| 2026-05-07 06:35 | 49.60727 | 10.70684 | 31569 ft | 466 kts | 324° |
| 2026-05-07 06:35 | 49.63400 | 10.67830 | 31867 ft | 466 kts | 323° |
| 2026-05-07 06:35 | 49.66067 | 10.64978 | 31938 ft | 462 kts | 323° |
| 2026-05-07 06:36 | 49.71321 | 10.59330 | 31942 ft | 458 kts | 323° |
| 2026-05-07 06:36 | 49.76553 | 10.53775 | 31936 ft | 457 kts | 325° |
| 2026-05-07 06:37 | 49.81962 | 10.48562 | 31933 ft | 456 kts | 328° |
| 2026-05-07 06:37 | 49.87400 | 10.43500 | 31924 ft | 455 kts | 327° |
| 2026-05-07 06:38 | 49.92773 | 10.38400 | 31931 ft | 454 kts | 327° |
| 2026-05-07 06:38 | 49.98146 | 10.33198 | 31930 ft | 453 kts | 327° |
| 2026-05-07 06:39 | 50.03495 | 10.27999 | 31925 ft | 453 kts | 327° |
| 2026-05-07 06:39 | 50.09206 | 10.23887 | 31922 ft | 454 kts | 343° |
| 2026-05-07 06:40 | 50.15372 | 10.21939 | 31919 ft | 454 kts | 348° |
| 2026-05-07 06:40 | 50.21432 | 10.19257 | 31914 ft | 452 kts | 342° |
| 2026-05-07 06:41 | 50.27439 | 10.16264 | 31925 ft | 452 kts | 341° |
| 2026-05-07 06:41 | 50.33430 | 10.13265 | 31918 ft | 451 kts | 342° |
| 2026-05-07 06:42 | 50.39417 | 10.10282 | 31916 ft | 450 kts | 342° |
| 2026-05-07 06:42 | 50.45370 | 10.07310 | 31907 ft | 450 kts | 342° |
| 2026-05-07 06:43 | 50.51332 | 10.04330 | 31904 ft | 450 kts | 342° |
| 2026-05-07 06:43 | 50.57318 | 10.01325 | 31902 ft | 450 kts | 342° |
| 2026-05-07 06:44 | 50.63261 | 9.98329 | 31900 ft | 450 kts | 342° |
| 2026-05-07 06:44 | 50.69232 | 9.95304 | 31907 ft | 450 kts | 342° |
| 2026-05-07 06:45 | 50.75212 | 9.92272 | 31903 ft | 450 kts | 342° |
| 2026-05-07 06:45 | 50.81184 | 9.89243 | 31901 ft | 451 kts | 342° |
| 2026-05-07 06:46 | 50.87118 | 9.86212 | 31896 ft | 450 kts | 342° |
| 2026-05-07 06:46 | 50.93094 | 9.83166 | 31900 ft | 451 kts | 342° |
| 2026-05-07 06:47 | 50.99087 | 9.80122 | 31910 ft | 451 kts | 342° |
| 2026-05-07 06:47 | 51.05065 | 9.77055 | 31912 ft | 451 kts | 342° |
| 2026-05-07 06:48 | 51.11041 | 9.73969 | 31914 ft | 451 kts | 342° |
| 2026-05-07 06:48 | 51.16982 | 9.70913 | 31917 ft | 451 kts | 344° |
| 2026-05-07 06:49 | 51.23193 | 9.69634 | 31915 ft | 451 kts | 2° |
| 2026-05-07 06:49 | 51.28409 | 9.70400 | 31918 ft | 451 kts | 6° |
| 2026-05-07 06:50 | 51.34663 | 9.71419 | 31919 ft | 452 kts | 6° |
| 2026-05-07 06:50 | 51.37802 | 9.71509 | 31918 ft | 451 kts | 353° |
| 2026-05-07 06:50 | 51.40842 | 9.70332 | 31920 ft | 449 kts | 337° |
| 2026-05-07 06:51 | 51.46387 | 9.65674 | 31917 ft | 449 kts | 330° |
| 2026-05-07 06:51 | 51.51836 | 9.60877 | 31902 ft | 450 kts | 330° |
| 2026-05-07 06:52 | 51.54613 | 9.58435 | 31421 ft | 455 kts | 330° |
| 2026-05-07 06:52 | 51.57398 | 9.55995 | 30863 ft | 455 kts | 330° |
| 2026-05-07 06:52 | 51.60196 | 9.53540 | 30310 ft | 456 kts | 331° |
| 2026-05-07 06:52 | 51.62978 | 9.51092 | 29726 ft | 455 kts | 331° |
| 2026-05-07 06:53 | 51.65768 | 9.48633 | 29089 ft | 456 kts | 331° |
| 2026-05-07 06:53 | 51.68531 | 9.46194 | 28479 ft | 457 kts | 330° |
| 2026-05-07 06:53 | 51.71312 | 9.43737 | 27875 ft | 455 kts | 330° |
| 2026-05-07 06:53 | 51.74086 | 9.41282 | 27280 ft | 451 kts | 330° |
| 2026-05-07 06:54 | 51.76830 | 9.38850 | 26767 ft | 449 kts | 330° |
| 2026-05-07 06:54 | 51.79562 | 9.36424 | 26272 ft | 445 kts | 330° |
| 2026-05-07 06:54 | 51.82277 | 9.34006 | 25788 ft | 441 kts | 330° |
| 2026-05-07 06:54 | 51.84957 | 9.31609 | 25315 ft | 438 kts | 330° |
| 2026-05-07 06:55 | 51.87590 | 9.29259 | 24848 ft | 435 kts | 330° |
| 2026-05-07 06:55 | 51.90235 | 9.26899 | 24394 ft | 433 kts | 330° |
| 2026-05-07 06:55 | 51.92869 | 9.24548 | 23950 ft | 429 kts | 330° |
| 2026-05-07 06:55 | 51.95475 | 9.22207 | 23515 ft | 427 kts | 330° |
| 2026-05-07 06:56 | 51.98069 | 9.19875 | 23026 ft | 424 kts | 330° |
| 2026-05-07 06:56 | 52.00645 | 9.17560 | 22529 ft | 420 kts | 330° |
| 2026-05-07 06:56 | 52.03199 | 9.15262 | 22044 ft | 417 kts | 330° |
| 2026-05-07 06:56 | 52.05693 | 9.13015 | 21571 ft | 413 kts | 330° |
| 2026-05-07 06:57 | 52.08201 | 9.10757 | 21106 ft | 410 kts | 330° |
| 2026-05-07 06:57 | 52.10690 | 9.08514 | 20641 ft | 407 kts | 330° |
| 2026-05-07 06:57 | 52.13164 | 9.06281 | 20173 ft | 404 kts | 330° |
| 2026-05-07 06:57 | 52.15614 | 9.04067 | 19735 ft | 401 kts | 330° |
| 2026-05-07 06:58 | 52.18045 | 9.01867 | 19293 ft | 398 kts | 330° |
| 2026-05-07 06:58 | 52.20468 | 8.99672 | 18853 ft | 395 kts | 330° |
| 2026-05-07 06:58 | 52.22867 | 8.97498 | 18424 ft | 392 kts | 330° |
| 2026-05-07 06:58 | 52.25238 | 8.95346 | 17957 ft | 389 kts | 330° |
| 2026-05-07 06:59 | 52.27571 | 8.93222 | 17471 ft | 385 kts | 330° |
| 2026-05-07 06:59 | 52.29911 | 8.91086 | 16978 ft | 383 kts | 330° |
| 2026-05-07 06:59 | 52.32227 | 8.88973 | 16514 ft | 379 kts | 330° |
| 2026-05-07 06:59 | 52.34525 | 8.86876 | 16055 ft | 376 kts | 330° |
| 2026-05-07 07:00 | 52.36804 | 8.84793 | 15604 ft | 373 kts | 331° |
| 2026-05-07 07:00 | 52.39067 | 8.82726 | 15150 ft | 371 kts | 331° |
| 2026-05-07 07:00 | 52.41318 | 8.80663 | 14695 ft | 369 kts | 331° |
| 2026-05-07 07:00 | 52.43556 | 8.78609 | 14266 ft | 367 kts | 331° |
| 2026-05-07 07:01 | 52.45749 | 8.76591 | 13838 ft | 364 kts | 331° |
| 2026-05-07 07:01 | 52.47956 | 8.74556 | 13371 ft | 361 kts | 331° |
| 2026-05-07 07:01 | 52.50145 | 8.72536 | 12891 ft | 359 kts | 331° |
| 2026-05-07 07:01 | 52.52320 | 8.70529 | 12414 ft | 356 kts | 331° |
| 2026-05-07 07:02 | 52.54474 | 8.68537 | 11953 ft | 354 kts | 331° |
| 2026-05-07 07:02 | 52.56612 | 8.66561 | 11499 ft | 351 kts | 331° |
| 2026-05-07 07:02 | 52.58742 | 8.64593 | 11172 ft | 349 kts | 331° |
| 2026-05-07 07:02 | 52.60827 | 8.62659 | 10852 ft | 348 kts | 331° |
| 2026-05-07 07:03 | 52.62930 | 8.60708 | 10530 ft | 346 kts | 331° |
| 2026-05-07 07:03 | 52.65025 | 8.58763 | 10212 ft | 344 kts | 331° |
| 2026-05-07 07:03 | 52.67108 | 8.56823 | 9893 ft | 343 kts | 331° |
| 2026-05-07 07:03 | 52.69180 | 8.54893 | 9536 ft | 340 kts | 331° |
| 2026-05-07 07:04 | 52.71236 | 8.52976 | 9191 ft | 338 kts | 332° |
| 2026-05-07 07:04 | 52.73283 | 8.51071 | 8847 ft | 337 kts | 332° |
| 2026-05-07 07:04 | 52.75300 | 8.49194 | 8513 ft | 326 kts | 332° |
| 2026-05-07 07:04 | 52.77220 | 8.47402 | 8235 ft | 316 kts | 332° |
| 2026-05-07 07:05 | 52.79108 | 8.45630 | 7952 ft | 308 kts | 332° |
| 2026-05-07 07:05 | 52.80967 | 8.43882 | 7668 ft | 306 kts | 332° |
| 2026-05-07 07:05 | 52.82815 | 8.42150 | 7388 ft | 305 kts | 332° |
| 2026-05-07 07:05 | 52.84664 | 8.40417 | 7114 ft | 303 kts | 332° |
| 2026-05-07 07:06 | 52.86453 | 8.38733 | 6855 ft | 293 kts | 332° |
| 2026-05-07 07:06 | 52.88204 | 8.37083 | 6609 ft | 284 kts | 333° |
| 2026-05-07 07:06 | 52.89905 | 8.35480 | 6364 ft | 276 kts | 333° |
| 2026-05-07 07:06 | 52.91585 | 8.34032 | 6102 ft | 267 kts | 343° |
| 2026-05-07 07:07 | 52.93373 | 8.33560 | 5778 ft | 254 kts | 5° |
| 2026-05-07 07:07 | 52.95024 | 8.34214 | 5444 ft | 237 kts | 26° |
| 2026-05-07 07:07 | 52.96328 | 8.35698 | 5117 ft | 224 kts | 46° |
| 2026-05-07 07:07 | 52.97370 | 8.37552 | 4780 ft | 215 kts | 47° |
| 2026-05-07 07:08 | 52.98379 | 8.39347 | 4450 ft | 211 kts | 47° |
| 2026-05-07 07:08 | 52.99370 | 8.41104 | 4132 ft | 204 kts | 47° |
| 2026-05-07 07:08 | 53.00325 | 8.42797 | 3875 ft | 197 kts | 47° |
| 2026-05-07 07:08 | 53.01253 | 8.44440 | 3641 ft | 192 kts | 47° |
| 2026-05-07 07:09 | 53.02163 | 8.46051 | 3437 ft | 190 kts | 47° |
| 2026-05-07 07:09 | 53.03069 | 8.47658 | 3232 ft | 189 kts | 47° |
| 2026-05-07 07:09 | 53.03736 | 8.49228 | 3073 ft | 186 kts | 65° |
| 2026-05-07 07:09 | 53.04025 | 8.51275 | 3017 ft | 180 kts | 86° |
| 2026-05-07 07:10 | 53.04072 | 8.53347 | 2912 ft | 177 kts | 85° |
| 2026-05-07 07:10 | 53.04125 | 8.55353 | 2699 ft | 170 kts | 86° |
| 2026-05-07 07:10 | 53.04174 | 8.57296 | 2486 ft | 167 kts | 86° |
| 2026-05-07 07:10 | 53.04222 | 8.59184 | 2262 ft | 164 kts | 86° |
| 2026-05-07 07:11 | 53.04269 | 8.61079 | 2035 ft | 161 kts | 87° |
| 2026-05-07 07:11 | 53.04312 | 8.62871 | 1821 ft | 148 kts | 87° |
| 2026-05-07 07:11 | 53.04351 | 8.64494 | 1641 ft | 135 kts | 87° |
| 2026-05-07 07:11 | 53.04389 | 8.66013 | 1445 ft | 129 kts | 87° |
| 2026-05-07 07:12 | 53.04425 | 8.67507 | 1267 ft | 129 kts | 87° |
| 2026-05-07 07:12 | 53.04460 | 8.68994 | 1084 ft | 128 kts | 86° |
| 2026-05-07 07:12 | 53.04495 | 8.70469 | 923 ft | 128 kts | 87° |
| 2026-05-07 07:12 | 53.04532 | 8.71931 | 724 ft | 128 kts | 87° |
| 2026-05-07 07:13 | 53.04556 | 8.73406 | 550 ft | 127 kts | 86° |
| 2026-05-07 07:13 | 53.04601 | 8.74879 | 365 ft | 128 kts | 86° |
| 2026-05-07 07:13 | 53.04630 | 8.76350 | 202 ft | 126 kts | 86° |
| 2026-05-07 07:13 | 53.04665 | 8.77795 | 38 ft | 122 kts | 86° |
| 2026-05-07 07:14 | 53.04697 | 8.79010 | 20 ft | 82 kts | 87° |
| 2026-05-07 07:14 | 53.04712 | 8.79678 | 19 ft | 36 kts | 88° |
| 2026-05-07 07:14 | 53.04737 | 8.79942 | 23 ft | 15 kts | 46° |
| 2026-05-07 07:14 | 53.04837 | 8.79960 | 19 ft | 13 kts | 328° |
| 2026-05-07 07:15 | 53.04875 | 8.79830 | 19 ft | 12 kts | 275° |
| 2026-05-07 07:15 | 53.04875 | 8.79692 | 19 ft | 11 kts | 270° |
| 2026-05-07 07:15 | 53.04871 | 8.79565 | 19 ft | 11 kts | 267° |
| 2026-05-07 07:15 | 53.04868 | 8.79445 | 19 ft | 10 kts | 268° |
| 2026-05-07 07:16 | 53.04865 | 8.79300 | 19 ft | 15 kts | 268° |
| 2026-05-07 07:16 | 53.04861 | 8.79140 | 19 ft | 14 kts | 268° |
| 2026-05-07 07:16 | 53.04857 | 8.78988 | 19 ft | 13 kts | 268° |
| 2026-05-07 07:16 | 53.04888 | 8.78867 | 20 ft | 11 kts | 316° |
| 2026-05-07 07:17 | 53.04944 | 8.78786 | 19 ft | 10 kts | 319° |
| 2026-05-07 07:17 | 53.04992 | 8.78708 | 19 ft | 10 kts | 303° |
| 2026-05-07 07:17 | 53.05025 | 8.78589 | 20 ft | 11 kts | 307° |
| 2026-05-07 07:17 | 53.05065 | 8.78564 | 19 ft | 5 kts | 24° |
| 2026-05-07 07:18 | 53.05089 | 8.78603 | 19 ft | 5 kts | 48° |
| 2026-05-07 07:18 | 53.05109 | 8.78640 | 19 ft | 0 kts | 49° |